sensor_id;sensor_type;location;lat;lon;timestamp;P1;durP1;ratioP1;P2;durP2;ratioP2
29246;SDS011;16272;48.188;9.964;2023-09-18T00:02:05;10.77;;;4.60;;
29246;SDS011;16272;48.188;9.964;2023-09-18T00:04:31;11.13;;;4.60;;
29246;SDS011;16272;48.188;9.964;2023-09-18T00:06:56;10.90;;;4.53;;
29246;SDS011;16272;48.188;9.964;2023-09-18T00:09:21;10.53;;;4.60;;
29246;SDS011;16272;48.188;9.964;2023-09-18T00:11:47;8.70;;;4.57;;
29246;SDS011;16272;48.188;9.964;2023-09-18T00:14:12;9.37;;;4.27;;
29246;SDS011;16272;48.188;9.964;2023-09-18T00:16:37;9.93;;;4.27;;
29246;SDS011;16272;48.188;9.964;2023-09-18T00:19:03;10.35;;;4.63;;
29246;SDS011;16272;48.188;9.964;2023-09-18T00:21:31;10.15;;;4.28;;
29246;SDS011;16272;48.188;9.964;2023-09-18T00:23:56;8.87;;;4.20;;
29246;SDS011;16272;48.188;9.964;2023-09-18T00:26:23;12.93;;;4.68;;
29246;SDS011;16272;48.188;9.964;2023-09-18T00:28:48;10.13;;;4.37;;
29246;SDS011;16272;48.188;9.964;2023-09-18T00:31:13;9.67;;;4.47;;
29246;SDS011;16272;48.188;9.964;2023-09-18T00:33:39;10.40;;;4.57;;
29246;SDS011;16272;48.188;9.964;2023-09-18T00:36:04;10.07;;;4.30;;
29246;SDS011;16272;48.188;9.964;2023-09-18T00:38:29;11.60;;;4.53;;
29246;SDS011;16272;48.188;9.964;2023-09-18T00:40:55;9.00;;;4.50;;
29246;SDS011;16272;48.188;9.964;2023-09-18T00:43:20;11.33;;;4.50;;
29246;SDS011;16272;48.188;9.964;2023-09-18T00:45:46;10.73;;;4.67;;
29246;SDS011;16272;48.188;9.964;2023-09-18T00:48:14;9.30;;;4.55;;
29246;SDS011;16272;48.188;9.964;2023-09-18T00:50:40;9.77;;;4.63;;
29246;SDS011;16272;48.188;9.964;2023-09-18T00:53:07;10.10;;;4.88;;
29246;SDS011;16272;48.188;9.964;2023-09-18T00:55:34;9.32;;;4.50;;
29246;SDS011;16272;48.188;9.964;2023-09-18T00:58:02;10.47;;;5.30;;
29246;SDS011;16272;48.188;9.964;2023-09-18T01:00:28;9.35;;;4.32;;
29246;SDS011;16272;48.188;9.964;2023-09-18T01:02:53;9.93;;;4.97;;
29246;SDS011;16272;48.188;9.964;2023-09-18T01:05:18;10.90;;;4.67;;
29246;SDS011;16272;48.188;9.964;2023-09-18T01:07:45;8.80;;;4.30;;
29246;SDS011;16272;48.188;9.964;2023-09-18T01:10:11;11.45;;;4.38;;
29246;SDS011;16272;48.188;9.964;2023-09-18T01:12:42;9.47;;;4.37;;
29246;SDS011;16272;48.188;9.964;2023-09-18T01:15:17;9.27;;;4.22;;
29246;SDS011;16272;48.188;9.964;2023-09-18T01:17:48;10.32;;;4.55;;
29246;SDS011;16272;48.188;9.964;2023-09-18T01:20:13;9.70;;;4.13;;
29246;SDS011;16272;48.188;9.964;2023-09-18T01:22:39;9.17;;;4.37;;
29246;SDS011;16272;48.188;9.964;2023-09-18T01:25:04;8.95;;;4.07;;
29246;SDS011;16272;48.188;9.964;2023-09-18T01:27:31;11.63;;;4.13;;
29246;SDS011;16272;48.188;9.964;2023-09-18T01:29:57;10.27;;;4.63;;
29246;SDS011;16272;48.188;9.964;2023-09-18T01:32:23;11.30;;;4.40;;
29246;SDS011;16272;48.188;9.964;2023-09-18T01:34:52;8.82;;;4.13;;
29246;SDS011;16272;48.188;9.964;2023-09-18T01:37:20;8.77;;;4.10;;
29246;SDS011;16272;48.188;9.964;2023-09-18T01:39:48;10.27;;;4.20;;
29246;SDS011;16272;48.188;9.964;2023-09-18T01:42:14;9.88;;;4.28;;
29246;SDS011;16272;48.188;9.964;2023-09-18T01:44:40;8.77;;;4.20;;
29246;SDS011;16272;48.188;9.964;2023-09-18T01:47:08;10.73;;;4.20;;
29246;SDS011;16272;48.188;9.964;2023-09-18T01:49:36;9.07;;;4.03;;
29246;SDS011;16272;48.188;9.964;2023-09-18T01:52:03;9.15;;;4.30;;
29246;SDS011;16272;48.188;9.964;2023-09-18T01:54:29;10.73;;;4.50;;
29246;SDS011;16272;48.188;9.964;2023-09-18T01:56:55;9.93;;;4.32;;
29246;SDS011;16272;48.188;9.964;2023-09-18T01:59:21;8.73;;;4.00;;
29246;SDS011;16272;48.188;9.964;2023-09-18T02:01:47;10.43;;;4.47;;
29246;SDS011;16272;48.188;9.964;2023-09-18T02:04:14;9.77;;;4.43;;
29246;SDS011;16272;48.188;9.964;2023-09-18T02:06:39;12.65;;;4.80;;
29246;SDS011;16272;48.188;9.964;2023-09-18T02:09:07;13.87;;;4.43;;
29246;SDS011;16272;48.188;9.964;2023-09-18T02:11:34;8.77;;;4.22;;
29246;SDS011;16272;48.188;9.964;2023-09-18T02:14:07;10.02;;;4.20;;
29246;SDS011;16272;48.188;9.964;2023-09-18T02:16:34;11.95;;;4.45;;
29246;SDS011;16272;48.188;9.964;2023-09-18T02:19:01;10.35;;;4.65;;
29246;SDS011;16272;48.188;9.964;2023-09-18T02:21:27;11.57;;;4.20;;
29246;SDS011;16272;48.188;9.964;2023-09-18T02:23:53;9.47;;;4.10;;
29246;SDS011;16272;48.188;9.964;2023-09-18T02:26:19;9.32;;;3.83;;
29246;SDS011;16272;48.188;9.964;2023-09-18T02:28:45;11.23;;;4.20;;
29246;SDS011;16272;48.188;9.964;2023-09-18T02:31:11;9.35;;;4.30;;
29246;SDS011;16272;48.188;9.964;2023-09-18T02:33:36;8.73;;;4.10;;
29246;SDS011;16272;48.188;9.964;2023-09-18T02:36:03;9.65;;;4.85;;
29246;SDS011;16272;48.188;9.964;2023-09-18T02:38:28;9.47;;;4.33;;
29246;SDS011;16272;48.188;9.964;2023-09-18T02:40:57;10.35;;;4.50;;
29246;SDS011;16272;48.188;9.964;2023-09-18T02:43:23;10.77;;;4.30;;
29246;SDS011;16272;48.188;9.964;2023-09-18T02:45:48;10.15;;;4.30;;
29246;SDS011;16272;48.188;9.964;2023-09-18T02:48:14;10.50;;;4.20;;
29246;SDS011;16272;48.188;9.964;2023-09-18T02:50:39;10.60;;;4.30;;
29246;SDS011;16272;48.188;9.964;2023-09-18T02:53:05;9.83;;;4.47;;
29246;SDS011;16272;48.188;9.964;2023-09-18T02:55:33;8.15;;;4.28;;
29246;SDS011;16272;48.188;9.964;2023-09-18T02:57:59;10.37;;;4.33;;
29246;SDS011;16272;48.188;9.964;2023-09-18T03:00:24;10.07;;;4.70;;
29246;SDS011;16272;48.188;9.964;2023-09-18T03:02:49;10.47;;;4.67;;
29246;SDS011;16272;48.188;9.964;2023-09-18T03:05:15;10.13;;;4.40;;
29246;SDS011;16272;48.188;9.964;2023-09-18T03:07:40;10.83;;;4.80;;
29246;SDS011;16272;48.188;9.964;2023-09-18T03:10:05;9.20;;;4.57;;
29246;SDS011;16272;48.188;9.964;2023-09-18T03:12:31;10.25;;;5.05;;
29246;SDS011;16272;48.188;9.964;2023-09-18T03:14:56;9.17;;;4.60;;
29246;SDS011;16272;48.188;9.964;2023-09-18T03:17:22;9.23;;;4.10;;
29246;SDS011;16272;48.188;9.964;2023-09-18T03:19:48;9.37;;;4.40;;
29246;SDS011;16272;48.188;9.964;2023-09-18T03:22:14;9.40;;;4.73;;
29246;SDS011;16272;48.188;9.964;2023-09-18T03:24:39;9.43;;;4.70;;
29246;SDS011;16272;48.188;9.964;2023-09-18T03:27:05;10.13;;;4.53;;
29246;SDS011;16272;48.188;9.964;2023-09-18T03:29:30;10.03;;;4.77;;
29246;SDS011;16272;48.188;9.964;2023-09-18T03:31:55;11.73;;;4.90;;
29246;SDS011;16272;48.188;9.964;2023-09-18T03:34:23;11.40;;;5.30;;
29246;SDS011;16272;48.188;9.964;2023-09-18T03:36:51;8.73;;;4.63;;
29246;SDS011;16272;48.188;9.964;2023-09-18T03:39:16;9.70;;;4.60;;
29246;SDS011;16272;48.188;9.964;2023-09-18T03:41:41;9.33;;;5.40;;
29246;SDS011;16272;48.188;9.964;2023-09-18T03:44:07;11.37;;;5.07;;
29246;SDS011;16272;48.188;9.964;2023-09-18T03:46:32;12.13;;;5.23;;
29246;SDS011;16272;48.188;9.964;2023-09-18T03:48:57;10.57;;;4.57;;
29246;SDS011;16272;48.188;9.964;2023-09-18T03:51:23;10.63;;;4.40;;
29246;SDS011;16272;48.188;9.964;2023-09-18T03:53:48;9.95;;;4.10;;
29246;SDS011;16272;48.188;9.964;2023-09-18T03:56:13;10.17;;;4.90;;
29246;SDS011;16272;48.188;9.964;2023-09-18T03:58:39;9.70;;;4.07;;
29246;SDS011;16272;48.188;9.964;2023-09-18T04:01:04;8.20;;;4.03;;
29246;SDS011;16272;48.188;9.964;2023-09-18T04:03:30;8.97;;;4.47;;
29246;SDS011;16272;48.188;9.964;2023-09-18T04:05:55;9.73;;;4.70;;
29246;SDS011;16272;48.188;9.964;2023-09-18T04:08:20;10.07;;;4.30;;
29246;SDS011;16272;48.188;9.964;2023-09-18T04:10:45;11.90;;;4.33;;
29246;SDS011;16272;48.188;9.964;2023-09-18T04:13:11;10.38;;;4.40;;
29246;SDS011;16272;48.188;9.964;2023-09-18T04:15:37;9.13;;;4.30;;
29246;SDS011;16272;48.188;9.964;2023-09-18T04:18:03;9.57;;;4.28;;
29246;SDS011;16272;48.188;9.964;2023-09-18T04:20:30;9.50;;;4.82;;
29246;SDS011;16272;48.188;9.964;2023-09-18T04:25:44;9.57;;;5.18;;
29246;SDS011;16272;48.188;9.964;2023-09-18T04:28:10;10.50;;;4.87;;
29246;SDS011;16272;48.188;9.964;2023-09-18T04:30:37;9.60;;;4.75;;
29246;SDS011;16272;48.188;9.964;2023-09-18T04:33:02;10.43;;;4.93;;
29246;SDS011;16272;48.188;9.964;2023-09-18T04:35:28;11.10;;;4.28;;
29246;SDS011;16272;48.188;9.964;2023-09-18T04:37:55;9.67;;;5.10;;
29246;SDS011;16272;48.188;9.964;2023-09-18T04:40:21;11.35;;;5.40;;
29246;SDS011;16272;48.188;9.964;2023-09-18T04:42:48;9.93;;;5.40;;
29246;SDS011;16272;48.188;9.964;2023-09-18T04:45:14;11.60;;;5.37;;
29246;SDS011;16272;48.188;9.964;2023-09-18T04:47:41;11.55;;;5.35;;
29246;SDS011;16272;48.188;9.964;2023-09-18T04:50:06;11.63;;;5.37;;
29246;SDS011;16272;48.188;9.964;2023-09-18T04:52:34;11.35;;;5.68;;
29246;SDS011;16272;48.188;9.964;2023-09-18T04:54:59;10.93;;;5.27;;
29246;SDS011;16272;48.188;9.964;2023-09-18T04:57:24;10.83;;;4.73;;
29246;SDS011;16272;48.188;9.964;2023-09-18T04:59:50;10.47;;;4.80;;
29246;SDS011;16272;48.188;9.964;2023-09-18T05:02:15;10.77;;;4.93;;
29246;SDS011;16272;48.188;9.964;2023-09-18T05:04:41;10.13;;;4.72;;
29246;SDS011;16272;48.188;9.964;2023-09-18T05:07:07;11.38;;;4.45;;
29246;SDS011;16272;48.188;9.964;2023-09-18T05:09:32;11.93;;;4.87;;
29246;SDS011;16272;48.188;9.964;2023-09-18T05:11:59;11.52;;;4.75;;
29246;SDS011;16272;48.188;9.964;2023-09-18T05:14:24;12.20;;;4.30;;
29246;SDS011;16272;48.188;9.964;2023-09-18T05:16:50;9.93;;;4.63;;
29246;SDS011;16272;48.188;9.964;2023-09-18T05:19:15;9.90;;;4.50;;
29246;SDS011;16272;48.188;9.964;2023-09-18T05:21:40;11.13;;;4.27;;
29246;SDS011;16272;48.188;9.964;2023-09-18T05:24:07;9.95;;;4.43;;
29246;SDS011;16272;48.188;9.964;2023-09-18T05:26:32;9.37;;;4.60;;
29246;SDS011;16272;48.188;9.964;2023-09-18T05:28:58;11.93;;;5.10;;
29246;SDS011;16272;48.188;9.964;2023-09-18T05:31:23;10.23;;;5.13;;
29246;SDS011;16272;48.188;9.964;2023-09-18T05:33:49;9.80;;;5.20;;
29246;SDS011;16272;48.188;9.964;2023-09-18T05:36:14;11.68;;;4.70;;
29246;SDS011;16272;48.188;9.964;2023-09-18T05:38:40;10.37;;;5.37;;
29246;SDS011;16272;48.188;9.964;2023-09-18T05:41:05;14.30;;;5.77;;
29246;SDS011;16272;48.188;9.964;2023-09-18T05:43:30;12.87;;;6.40;;
29246;SDS011;16272;48.188;9.964;2023-09-18T05:45:56;12.93;;;6.50;;
29246;SDS011;16272;48.188;9.964;2023-09-18T05:48:21;16.87;;;6.97;;
29246;SDS011;16272;48.188;9.964;2023-09-18T05:50:46;15.10;;;6.70;;
29246;SDS011;16272;48.188;9.964;2023-09-18T05:53:12;13.03;;;6.23;;
29246;SDS011;16272;48.188;9.964;2023-09-18T05:55:38;11.93;;;5.70;;
29246;SDS011;16272;48.188;9.964;2023-09-18T05:58:04;10.95;;;5.70;;
29246;SDS011;16272;48.188;9.964;2023-09-18T06:00:30;11.45;;;5.85;;
29246;SDS011;16272;48.188;9.964;2023-09-18T06:02:58;13.00;;;6.00;;
29246;SDS011;16272;48.188;9.964;2023-09-18T06:05:24;12.47;;;6.40;;
29246;SDS011;16272;48.188;9.964;2023-09-18T06:07:50;13.25;;;6.68;;
29246;SDS011;16272;48.188;9.964;2023-09-18T06:10:16;12.82;;;6.68;;
29246;SDS011;16272;48.188;9.964;2023-09-18T06:12:42;13.57;;;7.37;;
29246;SDS011;16272;48.188;9.964;2023-09-18T06:15:09;15.15;;;7.55;;
29246;SDS011;16272;48.188;9.964;2023-09-18T06:17:36;15.15;;;7.45;;
29246;SDS011;16272;48.188;9.964;2023-09-18T06:20:02;13.18;;;6.80;;
29246;SDS011;16272;48.188;9.964;2023-09-18T06:22:29;13.75;;;7.05;;
29246;SDS011;16272;48.188;9.964;2023-09-18T06:24:54;18.10;;;7.13;;
29246;SDS011;16272;48.188;9.964;2023-09-18T06:27:19;13.53;;;6.77;;
29246;SDS011;16272;48.188;9.964;2023-09-18T06:29:44;13.40;;;6.47;;
29246;SDS011;16272;48.188;9.964;2023-09-18T06:32:10;13.90;;;6.67;;
29246;SDS011;16272;48.188;9.964;2023-09-18T06:34:35;14.00;;;6.57;;
29246;SDS011;16272;48.188;9.964;2023-09-18T06:37:00;13.70;;;6.80;;
29246;SDS011;16272;48.188;9.964;2023-09-18T06:39:26;16.20;;;7.37;;
29246;SDS011;16272;48.188;9.964;2023-09-18T06:41:51;13.77;;;6.72;;
29246;SDS011;16272;48.188;9.964;2023-09-18T06:44:16;13.57;;;7.00;;
29246;SDS011;16272;48.188;9.964;2023-09-18T06:46:42;19.80;;;7.23;;
29246;SDS011;16272;48.188;9.964;2023-09-18T06:49:07;14.33;;;7.60;;
29246;SDS011;16272;48.188;9.964;2023-09-18T06:51:33;13.43;;;7.10;;
29246;SDS011;16272;48.188;9.964;2023-09-18T06:53:58;14.13;;;7.23;;
29246;SDS011;16272;48.188;9.964;2023-09-18T06:56:24;13.33;;;7.20;;
29246;SDS011;16272;48.188;9.964;2023-09-18T06:58:50;15.10;;;6.90;;
29246;SDS011;16272;48.188;9.964;2023-09-18T07:01:16;13.25;;;7.10;;
29246;SDS011;16272;48.188;9.964;2023-09-18T07:03:43;16.25;;;6.60;;
29246;SDS011;16272;48.188;9.964;2023-09-18T07:06:08;14.03;;;6.40;;
29246;SDS011;16272;48.188;9.964;2023-09-18T07:08:34;15.77;;;7.13;;
29246;SDS011;16272;48.188;9.964;2023-09-18T07:10:59;13.20;;;6.03;;
29246;SDS011;16272;48.188;9.964;2023-09-18T07:13:25;13.73;;;6.40;;
29246;SDS011;16272;48.188;9.964;2023-09-18T07:15:50;15.33;;;6.03;;
29246;SDS011;16272;48.188;9.964;2023-09-18T07:18:15;12.30;;;5.60;;
29246;SDS011;16272;48.188;9.964;2023-09-18T07:20:41;13.90;;;5.90;;
29246;SDS011;16272;48.188;9.964;2023-09-18T07:23:06;13.20;;;5.83;;
29246;SDS011;16272;48.188;9.964;2023-09-18T07:25:32;11.60;;;6.50;;
29246;SDS011;16272;48.188;9.964;2023-09-18T07:27:57;12.57;;;5.47;;
29246;SDS011;16272;48.188;9.964;2023-09-18T07:30:22;14.17;;;5.67;;
29246;SDS011;16272;48.188;9.964;2023-09-18T07:32:51;10.00;;;5.35;;
29246;SDS011;16272;48.188;9.964;2023-09-18T07:35:21;9.93;;;4.30;;
29246;SDS011;16272;48.188;9.964;2023-09-18T07:37:47;10.05;;;4.65;;
29246;SDS011;16272;48.188;9.964;2023-09-18T07:40:13;10.70;;;4.40;;
29246;SDS011;16272;48.188;9.964;2023-09-18T07:42:38;11.87;;;4.50;;
29246;SDS011;16272;48.188;9.964;2023-09-18T07:45:04;10.83;;;4.50;;
29246;SDS011;16272;48.188;9.964;2023-09-18T07:47:29;12.18;;;4.28;;
29246;SDS011;16272;48.188;9.964;2023-09-18T07:49:56;9.73;;;4.00;;
29246;SDS011;16272;48.188;9.964;2023-09-18T07:52:21;10.03;;;4.17;;
29246;SDS011;16272;48.188;9.964;2023-09-18T07:54:47;14.23;;;4.37;;
29246;SDS011;16272;48.188;9.964;2023-09-18T07:57:12;10.77;;;4.33;;
29246;SDS011;16272;48.188;9.964;2023-09-18T07:59:38;11.30;;;3.97;;
29246;SDS011;16272;48.188;9.964;2023-09-18T08:02:07;12.10;;;3.70;;
29246;SDS011;16272;48.188;9.964;2023-09-18T08:04:34;9.77;;;3.63;;
29246;SDS011;16272;48.188;9.964;2023-09-18T08:06:59;10.90;;;3.30;;
29246;SDS011;16272;48.188;9.964;2023-09-18T08:09:25;13.13;;;3.57;;
29246;SDS011;16272;48.188;9.964;2023-09-18T08:11:51;10.05;;;3.63;;
29246;SDS011;16272;48.188;9.964;2023-09-18T08:14:20;10.55;;;3.20;;
29246;SDS011;16272;48.188;9.964;2023-09-18T08:16:45;11.00;;;3.27;;
29246;SDS011;16272;48.188;9.964;2023-09-18T08:19:11;10.47;;;3.80;;
29246;SDS011;16272;48.188;9.964;2023-09-18T08:21:41;13.00;;;3.28;;
29246;SDS011;16272;48.188;9.964;2023-09-18T08:24:07;8.80;;;3.40;;
29246;SDS011;16272;48.188;9.964;2023-09-18T08:26:32;12.57;;;3.53;;
29246;SDS011;16272;48.188;9.964;2023-09-18T08:28:57;11.67;;;3.03;;
29246;SDS011;16272;48.188;9.964;2023-09-18T08:31:22;9.53;;;3.47;;
29246;SDS011;16272;48.188;9.964;2023-09-18T08:33:49;11.02;;;2.67;;
29246;SDS011;16272;48.188;9.964;2023-09-18T08:36:14;11.75;;;3.10;;
29246;SDS011;16272;48.188;9.964;2023-09-18T08:38:40;9.70;;;2.90;;
29246;SDS011;16272;48.188;9.964;2023-09-18T08:41:06;9.95;;;2.92;;
29246;SDS011;16272;48.188;9.964;2023-09-18T08:43:34;10.55;;;3.25;;
29246;SDS011;16272;48.188;9.964;2023-09-18T08:45:59;12.27;;;3.20;;
29246;SDS011;16272;48.188;9.964;2023-09-18T08:48:29;9.25;;;3.25;;
29246;SDS011;16272;48.188;9.964;2023-09-18T08:51:01;11.82;;;3.10;;
29246;SDS011;16272;48.188;9.964;2023-09-18T08:53:30;10.18;;;3.03;;
29246;SDS011;16272;48.188;9.964;2023-09-18T08:55:56;10.43;;;3.10;;
29246;SDS011;16272;48.188;9.964;2023-09-18T08:58:24;10.68;;;2.90;;
29246;SDS011;16272;48.188;9.964;2023-09-18T09:00:51;9.27;;;3.45;;
29246;SDS011;16272;48.188;9.964;2023-09-18T09:03:17;11.02;;;2.70;;
29246;SDS011;16272;48.188;9.964;2023-09-18T09:05:43;9.40;;;2.70;;
29246;SDS011;16272;48.188;9.964;2023-09-18T09:08:08;11.43;;;3.03;;
29246;SDS011;16272;48.188;9.964;2023-09-18T09:10:33;9.90;;;3.10;;
29246;SDS011;16272;48.188;9.964;2023-09-18T09:12:59;9.43;;;2.83;;
29246;SDS011;16272;48.188;9.964;2023-09-18T09:15:29;9.68;;;3.08;;
29246;SDS011;16272;48.188;9.964;2023-09-18T09:18:06;14.38;;;2.67;;
29246;SDS011;16272;48.188;9.964;2023-09-18T09:20:33;9.40;;;2.63;;
29246;SDS011;16272;48.188;9.964;2023-09-18T09:23:01;12.00;;;2.83;;
29246;SDS011;16272;48.188;9.964;2023-09-18T09:25:28;10.40;;;2.47;;
29246;SDS011;16272;48.188;9.964;2023-09-18T09:28:01;9.05;;;2.50;;
29246;SDS011;16272;48.188;9.964;2023-09-18T09:30:30;12.50;;;2.60;;
29246;SDS011;16272;48.188;9.964;2023-09-18T09:32:56;11.02;;;2.78;;
29246;SDS011;16272;48.188;9.964;2023-09-18T09:35:27;9.80;;;2.70;;
29246;SDS011;16272;48.188;9.964;2023-09-18T09:37:57;9.60;;;2.60;;
29246;SDS011;16272;48.188;9.964;2023-09-18T09:40:25;8.40;;;2.40;;
29246;SDS011;16272;48.188;9.964;2023-09-18T09:42:52;7.07;;;2.10;;
29246;SDS011;16272;48.188;9.964;2023-09-18T09:45:25;8.65;;;2.10;;
29246;SDS011;16272;48.188;9.964;2023-09-18T09:47:54;9.07;;;2.53;;
29246;SDS011;16272;48.188;9.964;2023-09-18T09:50:21;8.63;;;2.20;;
29246;SDS011;16272;48.188;9.964;2023-09-18T09:52:47;8.50;;;2.28;;
29246;SDS011;16272;48.188;9.964;2023-09-18T09:55:25;8.47;;;2.40;;
29246;SDS011;16272;48.188;9.964;2023-09-18T09:57:54;8.15;;;2.25;;
29246;SDS011;16272;48.188;9.964;2023-09-18T10:03:14;9.73;;;2.28;;
29246;SDS011;16272;48.188;9.964;2023-09-18T10:05:41;10.45;;;2.42;;
29246;SDS011;16272;48.188;9.964;2023-09-18T10:08:13;9.67;;;1.80;;
29246;SDS011;16272;48.188;9.964;2023-09-18T10:10:43;9.85;;;2.28;;
29246;SDS011;16272;48.188;9.964;2023-09-18T10:13:14;7.63;;;2.00;;
29246;SDS011;16272;48.188;9.964;2023-09-18T10:15:43;9.93;;;2.00;;
29246;SDS011;16272;48.188;9.964;2023-09-18T10:18:17;7.25;;;2.20;;
29246;SDS011;16272;48.188;9.964;2023-09-18T10:20:50;8.97;;;2.53;;
29246;SDS011;16272;48.188;9.964;2023-09-18T10:26:15;9.13;;;2.20;;
29246;SDS011;16272;48.188;9.964;2023-09-18T10:28:49;7.13;;;1.85;;
29246;SDS011;16272;48.188;9.964;2023-09-18T10:31:17;6.38;;;1.98;;
29246;SDS011;16272;48.188;9.964;2023-09-18T10:33:44;6.23;;;1.53;;
29246;SDS011;16272;48.188;9.964;2023-09-18T10:36:10;6.75;;;1.90;;
29246;SDS011;16272;48.188;9.964;2023-09-18T10:38:36;6.97;;;1.90;;
29246;SDS011;16272;48.188;9.964;2023-09-18T10:41:03;8.40;;;2.28;;
29246;SDS011;16272;48.188;9.964;2023-09-18T10:43:30;10.50;;;1.80;;
29246;SDS011;16272;48.188;9.964;2023-09-18T10:45:55;7.57;;;1.70;;
29246;SDS011;16272;48.188;9.964;2023-09-18T10:48:21;7.23;;;1.50;;
29246;SDS011;16272;48.188;9.964;2023-09-18T10:50:48;8.05;;;1.80;;
29246;SDS011;16272;48.188;9.964;2023-09-18T10:53:15;7.63;;;1.92;;
29246;SDS011;16272;48.188;9.964;2023-09-18T10:55:44;7.20;;;1.77;;
29246;SDS011;16272;48.188;9.964;2023-09-18T10:58:10;6.75;;;1.90;;
29246;SDS011;16272;48.188;9.964;2023-09-18T11:00:35;6.03;;;1.63;;
29246;SDS011;16272;48.188;9.964;2023-09-18T11:05:37;7.10;;;1.80;;
29246;SDS011;16272;48.188;9.964;2023-09-18T11:08:23;6.40;;;1.77;;
29246;SDS011;16272;48.188;9.964;2023-09-18T11:10:57;6.50;;;1.45;;
29246;SDS011;16272;48.188;9.964;2023-09-18T11:13:29;7.35;;;1.80;;
29246;SDS011;16272;48.188;9.964;2023-09-18T11:15:59;6.55;;;1.60;;
29246;SDS011;16272;48.188;9.964;2023-09-18T11:18:47;7.93;;;1.77;;
29246;SDS011;16272;48.188;9.964;2023-09-18T11:21:15;7.27;;;1.43;;
29246;SDS011;16272;48.188;9.964;2023-09-18T11:23:42;6.65;;;1.65;;
29246;SDS011;16272;48.188;9.964;2023-09-18T11:26:11;7.38;;;1.70;;
29246;SDS011;16272;48.188;9.964;2023-09-18T11:28:37;7.93;;;2.00;;
29246;SDS011;16272;48.188;9.964;2023-09-18T11:31:03;6.75;;;1.98;;
29246;SDS011;16272;48.188;9.964;2023-09-18T11:33:33;8.17;;;1.67;;
29246;SDS011;16272;48.188;9.964;2023-09-18T11:36:12;6.55;;;1.50;;
29246;SDS011;16272;48.188;9.964;2023-09-18T11:38:55;7.47;;;1.73;;
29246;SDS011;16272;48.188;9.964;2023-09-18T11:41:25;5.70;;;1.52;;
29246;SDS011;16272;48.188;9.964;2023-09-18T11:43:53;5.57;;;1.40;;
29246;SDS011;16272;48.188;9.964;2023-09-18T11:46:50;5.57;;;1.40;;
29246;SDS011;16272;48.188;9.964;2023-09-18T11:49:22;5.68;;;1.58;;
29246;SDS011;16272;48.188;9.964;2023-09-18T11:51:51;5.43;;;1.15;;
29246;SDS011;16272;48.188;9.964;2023-09-18T11:54:17;5.20;;;1.30;;
29246;SDS011;16272;48.188;9.964;2023-09-18T11:56:42;5.20;;;1.20;;
29246;SDS011;16272;48.188;9.964;2023-09-18T11:59:08;5.95;;;1.20;;
29246;SDS011;16272;48.188;9.964;2023-09-18T12:01:35;5.75;;;1.60;;
29246;SDS011;16272;48.188;9.964;2023-09-18T12:04:01;5.50;;;1.30;;
29246;SDS011;16272;48.188;9.964;2023-09-18T12:06:32;5.43;;;1.65;;
29246;SDS011;16272;48.188;9.964;2023-09-18T12:08:58;7.50;;;1.40;;
29246;SDS011;16272;48.188;9.964;2023-09-18T12:11:24;7.00;;;1.50;;
29246;SDS011;16272;48.188;9.964;2023-09-18T12:13:50;5.85;;;1.60;;
29246;SDS011;16272;48.188;9.964;2023-09-18T12:16:16;5.67;;;1.60;;
29246;SDS011;16272;48.188;9.964;2023-09-18T12:18:45;5.50;;;1.48;;
29246;SDS011;16272;48.188;9.964;2023-09-18T12:21:12;5.30;;;1.55;;
29246;SDS011;16272;48.188;9.964;2023-09-18T12:23:39;5.27;;;1.50;;
29246;SDS011;16272;48.188;9.964;2023-09-18T12:26:05;6.07;;;1.58;;
29246;SDS011;16272;48.188;9.964;2023-09-18T12:28:35;6.25;;;1.50;;
29246;SDS011;16272;48.188;9.964;2023-09-18T12:31:01;6.22;;;1.52;;
29246;SDS011;16272;48.188;9.964;2023-09-18T12:33:30;6.03;;;1.42;;
29246;SDS011;16272;48.188;9.964;2023-09-18T12:35:59;5.97;;;1.70;;
29246;SDS011;16272;48.188;9.964;2023-09-18T12:38:24;6.18;;;1.65;;
29246;SDS011;16272;48.188;9.964;2023-09-18T12:40:52;5.70;;;1.50;;
29246;SDS011;16272;48.188;9.964;2023-09-18T12:43:18;6.28;;;1.45;;
29246;SDS011;16272;48.188;9.964;2023-09-18T12:45:47;6.28;;;1.70;;
29246;SDS011;16272;48.188;9.964;2023-09-18T12:48:14;7.85;;;1.50;;
29246;SDS011;16272;48.188;9.964;2023-09-18T12:50:40;5.93;;;1.47;;
29246;SDS011;16272;48.188;9.964;2023-09-18T12:53:06;6.22;;;1.98;;
29246;SDS011;16272;48.188;9.964;2023-09-18T12:55:33;5.85;;;1.58;;
29246;SDS011;16272;48.188;9.964;2023-09-18T12:57:58;6.57;;;1.60;;
29246;SDS011;16272;48.188;9.964;2023-09-18T13:00:24;6.25;;;1.70;;
29246;SDS011;16272;48.188;9.964;2023-09-18T13:02:51;6.95;;;2.00;;
29246;SDS011;16272;48.188;9.964;2023-09-18T13:05:20;6.17;;;1.30;;
29246;SDS011;16272;48.188;9.964;2023-09-18T13:07:50;6.47;;;1.40;;
29246;SDS011;16272;48.188;9.964;2023-09-18T13:10:15;6.10;;;1.40;;
29246;SDS011;16272;48.188;9.964;2023-09-18T13:12:45;6.60;;;1.73;;
29246;SDS011;16272;48.188;9.964;2023-09-18T13:15:12;6.20;;;1.50;;
29246;SDS011;16272;48.188;9.964;2023-09-18T13:17:42;6.80;;;1.70;;
29246;SDS011;16272;48.188;9.964;2023-09-18T13:20:16;7.57;;;1.60;;
29246;SDS011;16272;48.188;9.964;2023-09-18T13:22:54;7.37;;;1.50;;
29246;SDS011;16272;48.188;9.964;2023-09-18T13:25:39;5.93;;;1.60;;
29246;SDS011;16272;48.188;9.964;2023-09-18T13:28:09;6.13;;;1.58;;
29246;SDS011;16272;48.188;9.964;2023-09-18T13:30:35;7.05;;;1.75;;
29246;SDS011;16272;48.188;9.964;2023-09-18T13:33:04;6.78;;;1.90;;
29246;SDS011;16272;48.188;9.964;2023-09-18T13:35:32;7.83;;;1.60;;
29246;SDS011;16272;48.188;9.964;2023-09-18T13:37:58;7.93;;;1.85;;
29246;SDS011;16272;48.188;9.964;2023-09-18T13:40:24;6.00;;;1.80;;
29246;SDS011;16272;48.188;9.964;2023-09-18T13:42:49;7.10;;;1.80;;
29246;SDS011;16272;48.188;9.964;2023-09-18T13:45:15;5.68;;;1.80;;
29246;SDS011;16272;48.188;9.964;2023-09-18T13:47:43;6.03;;;1.70;;
29246;SDS011;16272;48.188;9.964;2023-09-18T13:50:09;6.32;;;1.85;;
29246;SDS011;16272;48.188;9.964;2023-09-18T13:52:35;6.57;;;2.03;;
29246;SDS011;16272;48.188;9.964;2023-09-18T13:55:02;6.25;;;2.13;;
29246;SDS011;16272;48.188;9.964;2023-09-18T13:57:30;6.47;;;2.20;;
29246;SDS011;16272;48.188;9.964;2023-09-18T13:59:59;6.30;;;2.15;;
29246;SDS011;16272;48.188;9.964;2023-09-18T14:02:25;6.60;;;1.80;;
29246;SDS011;16272;48.188;9.964;2023-09-18T14:04:52;6.27;;;1.70;;
29246;SDS011;16272;48.188;9.964;2023-09-18T14:07:18;6.38;;;2.22;;
29246;SDS011;16272;48.188;9.964;2023-09-18T14:09:44;6.10;;;1.90;;
29246;SDS011;16272;48.188;9.964;2023-09-18T14:12:11;5.97;;;1.80;;
29246;SDS011;16272;48.188;9.964;2023-09-18T14:14:37;5.83;;;1.77;;
29246;SDS011;16272;48.188;9.964;2023-09-18T14:17:03;6.70;;;2.00;;
29246;SDS011;16272;48.188;9.964;2023-09-18T14:19:31;5.90;;;1.88;;
29246;SDS011;16272;48.188;9.964;2023-09-18T14:21:57;6.20;;;1.70;;
29246;SDS011;16272;48.188;9.964;2023-09-18T14:24:22;7.90;;;1.60;;
29246;SDS011;16272;48.188;9.964;2023-09-18T14:26:51;5.90;;;1.45;;
29246;SDS011;16272;48.188;9.964;2023-09-18T14:29:16;6.28;;;1.60;;
29246;SDS011;16272;48.188;9.964;2023-09-18T14:31:42;6.50;;;1.37;;
29246;SDS011;16272;48.188;9.964;2023-09-18T14:34:07;5.57;;;1.70;;
29246;SDS011;16272;48.188;9.964;2023-09-18T14:36:33;5.57;;;1.65;;
29246;SDS011;16272;48.188;9.964;2023-09-18T14:39:00;6.53;;;1.90;;
29246;SDS011;16272;48.188;9.964;2023-09-18T14:41:26;5.28;;;1.40;;
29246;SDS011;16272;48.188;9.964;2023-09-18T14:43:52;4.75;;;1.40;;
29246;SDS011;16272;48.188;9.964;2023-09-18T14:46:17;4.70;;;1.30;;
29246;SDS011;16272;48.188;9.964;2023-09-18T14:48:43;6.10;;;1.90;;
29246;SDS011;16272;48.188;9.964;2023-09-18T14:51:08;5.47;;;1.50;;